Time;durP1;ratioP1;P1;durP2;ratioP2;P2;SDS_P1;SDS_P2;PMS_P1;PMS_P2;Temp;Humidity;BMP_temperature;BMP_pressure;BME280_temperature;BME280_humidity;BME280_pressure;Samples;Min_cycle;Max_cycle;Signal;HPM_P1;HPM_P2
2022/02/12 00:00:40;;;;;;;4.28;1.77;;;;;;;;;;5052116;28;20143;-76
2022/02/12 00:03:06;;;;;;;3.88;1.92;;;;;;;;;;5067747;28;20521;-76
2022/02/12 00:05:32;;;;;;;6.68;1.65;;;;;;;;;;5052915;28;20114;-76
2022/02/12 00:07:59;;;;;;;5.78;2.80;;;;;;;;;;5068220;28;20060;-76
2022/02/12 00:10:26;;;;;;;5.55;2.35;;;;;;;;;;5053155;28;20032;-74
2022/02/12 00:12:52;;;;;;;3.28;1.65;;;;;;;;;;5052203;28;20033;-76
2022/02/12 00:15:20;;;;;;;4.97;1.90;;;;;;;;;;5067794;28;20358;-76
2022/02/12 00:17:46;;;;;;;3.50;1.88;;;;;;;;;;5068860;28;20388;-75
2022/02/12 00:20:13;;;;;;;5.55;1.77;;;;;;;;;;5067419;28;20032;-77
2022/02/12 00:22:39;;;;;;;2.80;1.55;;;;;;;;;;5051525;28;20052;-76
2022/02/12 00:25:05;;;;;;;4.97;1.63;;;;;;;;;;5052571;28;20460;-75
2022/02/12 00:27:31;;;;;;;4.60;2.28;;;;;;;;;;5066956;28;20033;-76
2022/02/12 00:30:00;;;;;;;4.82;1.60;;;;;;;;;;5051755;28;20044;-76
2022/02/12 00:32:26;;;;;;;4.78;2.08;;;;;;;;;;5051596;28;20455;-75
2022/02/12 00:34:52;;;;;;;6.10;2.40;;;;;;;;;;5053300;28;20113;-76
2022/02/12 00:37:20;;;;;;;2.65;1.27;;;;;;;;;;5050859;28;20048;-76
2022/02/12 00:39:46;;;;;;;3.30;1.67;;;;;;;;;;5051756;28;20448;-76
2022/02/12 00:42:12;;;;;;;2.85;1.10;;;;;;;;;;5068179;28;20028;-76
2022/02/12 00:44:39;;;;;;;5.30;1.70;;;;;;;;;;5052730;28;20036;-75
2022/02/12 00:47:08;;;;;;;2.70;1.48;;;;;;;;;;5050748;28;20756;-76
2022/02/12 00:49:34;;;;;;;4.05;2.00;;;;;;;;;;5051694;28;20033;-77
2022/02/12 00:52:02;;;;;;;2.97;1.55;;;;;;;;;;5066290;28;20067;-76
2022/02/12 00:54:28;;;;;;;4.25;1.35;;;;;;;;;;5066558;28;20044;-76
2022/02/12 00:56:54;;;;;;;4.65;2.03;;;;;;;;;;5051753;28;20505;-76
2022/02/12 00:59:20;;;;;;;3.25;1.83;;;;;;;;;;5051304;28;20037;-75
2022/02/12 01:01:46;;;;;;;3.65;1.65;;;;;;;;;;5067007;28;20028;-76
2022/02/12 01:04:13;;;;;;;5.35;2.10;;;;;;;;;;5065818;28;20156;-75
2022/02/12 01:06:39;;;;;;;3.95;2.22;;;;;;;;;;5067327;28;20461;-75
2022/02/12 01:09:07;;;;;;;3.20;1.10;;;;;;;;;;5050563;28;20033;-76
2022/02/12 01:11:33;;;;;;;6.90;2.00;;;;;;;;;;5065760;28;20041;-76
2022/02/12 01:14:01;;;;;;;5.57;1.55;;;;;;;;;;5051697;28;20047;-76
2022/02/12 01:16:27;;;;;;;5.15;1.58;;;;;;;;;;5066801;28;20064;-75
2022/02/12 01:18:53;;;;;;;7.68;2.33;;;;;;;;;;5065695;28;20112;-76
2022/02/12 01:21:19;;;;;;;4.07;1.92;;;;;;;;;;5066234;28;20028;-75
2022/02/12 01:23:46;;;;;;;2.65;1.45;;;;;;;;;;5051334;28;20384;-76
2022/02/12 01:26:12;;;;;;;3.92;1.42;;;;;;;;;;5049912;28;21576;-76
2022/02/12 01:28:38;;;;;;;6.28;1.65;;;;;;;;;;5050788;28;20067;-76
2022/02/12 01:31:05;;;;;;;3.50;1.40;;;;;;;;;;5065732;28;20041;-76
2022/02/12 01:33:33;;;;;;;3.13;1.67;;;;;;;;;;5066407;28;20175;-75
2022/02/12 01:35:59;;;;;;;5.20;1.50;;;;;;;;;;5066361;28;20457;-76
2022/02/12 01:38:29;;;;;;;4.18;1.85;;;;;;;;;;5050451;28;20039;-75
2022/02/12 01:40:57;;;;;;;2.38;1.50;;;;;;;;;;5050054;28;20029;-76
2022/02/12 01:43:23;;;;;;;2.72;1.67;;;;;;;;;;5066199;28;20036;-75
2022/02/12 01:45:49;;;;;;;2.63;1.15;;;;;;;;;;5065823;28;20043;-76
2022/02/12 01:48:15;;;;;;;7.88;2.00;;;;;;;;;;5066242;28;20049;-76
2022/02/12 01:50:41;;;;;;;5.03;2.70;;;;;;;;;;5066730;28;20419;-76
2022/02/12 01:53:08;;;;;;;5.50;1.73;;;;;;;;;;5066266;28;20390;-76
2022/02/12 01:55:34;;;;;;;4.53;2.03;;;;;;;;;;5050925;28;20036;-78
2022/02/12 01:58:00;;;;;;;4.05;1.27;;;;;;;;;;5066648;28;20576;-76
2022/02/12 02:00:28;;;;;;;2.08;1.25;;;;;;;;;;5066288;28;20037;-76
2022/02/12 02:02:56;;;;;;;2.53;1.73;;;;;;;;;;5066434;28;20032;-78
2022/02/12 02:05:22;;;;;;;4.22;1.40;;;;;;;;;;5066155;28;20064;-76
2022/02/12 02:07:51;;;;;;;5.38;1.88;;;;;;;;;;5050599;28;20676;-76
2022/02/12 02:10:16;;;;;;;2.33;1.10;;;;;;;;;;5049561;28;21071;-74
2022/02/12 02:12:42;;;;;;;2.75;1.35;;;;;;;;;;5066132;28;20043;-76
2022/02/12 02:15:09;;;;;;;3.95;1.65;;;;;;;;;;5065584;28;20186;-76
2022/02/12 02:17:35;;;;;;;2.90;1.63;;;;;;;;;;5066645;28;20052;-74
2022/02/12 02:20:03;;;;;;;4.20;1.33;;;;;;;;;;5066079;28;21518;-76
2022/02/12 02:22:35;;;;;;;2.80;1.17;;;;;;;;;;5065123;28;20029;-76
2022/02/12 02:25:01;;;;;;;4.10;2.07;;;;;;;;;;5050640;28;20108;-75
2022/02/12 02:27:28;;;;;;;2.20;1.30;;;;;;;;;;5050388;28;20040;-76
2022/02/12 02:29:54;;;;;;;3.22;1.40;;;;;;;;;;5065995;28;20083;-76
2022/02/12 02:32:20;;;;;;;3.33;1.67;;;;;;;;;;5065097;28;20079;-76
2022/02/12 02:34:48;;;;;;;2.95;1.10;;;;;;;;;;5066108;28;20116;-76
2022/02/12 02:37:14;;;;;;;3.17;1.48;;;;;;;;;;5066745;28;20120;-77
2022/02/12 02:39:41;;;;;;;3.95;0.75;;;;;;;;;;5069247;28;20862;-76
2022/02/12 02:42:07;;;;;;;2.35;0.95;;;;;;;;;;5054382;28;20052;-77
2022/02/12 02:44:33;;;;;;;2.55;1.30;;;;;;;;;;5070767;28;20160;-76
2022/02/12 02:46:59;;;;;;;2.92;1.27;;;;;;;;;;5069447;28;20028;-76
2022/02/12 02:49:25;;;;;;;4.07;1.33;;;;;;;;;;5053800;28;20033;-76
2022/02/12 02:57:20;;;;;;;3.53;1.38;;;;;;;;;;5053853;28;20056;-76
2022/02/12 02:59:48;;;;;;;1.85;1.02;;;;;;;;;;5069240;28;20036;-76
2022/02/12 03:02:14;;;;;;;2.78;1.35;;;;;;;;;;5070947;28;20020;-76
2022/02/12 03:04:40;;;;;;;2.78;1.08;;;;;;;;;;5053794;28;20037;-76
2022/02/12 03:07:09;;;;;;;3.58;1.48;;;;;;;;;;5053192;28;20143;-76
2022/02/12 03:09:35;;;;;;;2.72;1.52;;;;;;;;;;5069586;28;20029;-77
2022/02/12 03:12:01;;;;;;;2.55;1.10;;;;;;;;;;5070018;28;20110;-77
2022/02/12 03:14:27;;;;;;;3.42;1.50;;;;;;;;;;5054286;28;20032;-76
2022/02/12 03:16:53;;;;;;;5.68;2.03;;;;;;;;;;5068491;28;20040;-74
2022/02/12 03:19:18;;;;;;;3.25;2.00;;;;;;;;;;5068071;28;20606;-76
2022/02/12 03:21:45;;;;;;;3.47;1.20;;;;;;;;;;5053156;28;20037;-76
2022/02/12 03:24:10;;;;;;;3.10;1.05;;;;;;;;;;5052935;28;20031;-77
2022/02/12 03:26:37;;;;;;;3.65;1.85;;;;;;;;;;5068829;28;20029;-77
2022/02/12 03:29:03;;;;;;;2.65;1.23;;;;;;;;;;5052931;28;20503;-76
2022/02/12 03:31:31;;;;;;;2.17;1.00;;;;;;;;;;5068195;28;20041;-76
2022/02/12 03:33:57;;;;;;;2.47;1.77;;;;;;;;;;5052368;28;20104;-76
2022/02/12 03:36:23;;;;;;;5.15;1.80;;;;;;;;;;5069241;28;20036;-75
2022/02/12 03:38:49;;;;;;;1.80;1.00;;;;;;;;;;5068076;28;20038;-76
2022/02/12 03:41:16;;;;;;;3.30;1.70;;;;;;;;;;5053269;28;20544;-76
2022/02/12 03:43:42;;;;;;;1.20;1.00;;;;;;;;;;5052754;28;20201;-76
2022/02/12 03:46:11;;;;;;;2.78;1.52;;;;;;;;;;5052285;28;20036;-76
2022/02/12 03:48:37;;;;;;;2.80;1.27;;;;;;;;;;5052504;28;20040;-76
2022/02/12 03:51:03;;;;;;;2.15;0.95;;;;;;;;;;5068437;28;20051;-76
2022/02/12 03:53:29;;;;;;;5.75;1.98;;;;;;;;;;5053650;28;20762;-76
2022/02/12 03:55:55;;;;;;;3.42;1.52;;;;;;;;;;5068922;28;20664;-75
2022/02/12 03:58:21;;;;;;;5.55;1.20;;;;;;;;;;5069546;28;20033;-74
2022/02/12 04:00:48;;;;;;;2.55;1.27;;;;;;;;;;5068886;28;20036;-75
2022/02/12 04:03:14;;;;;;;1.67;0.88;;;;;;;;;;5067209;28;20065;-76
2022/02/12 04:05:44;;;;;;;3.13;1.88;;;;;;;;;;5068221;28;20075;-75
2022/02/12 04:08:10;;;;;;;2.45;1.05;;;;;;;;;;5052123;28;20035;-76
2022/02/12 04:10:36;;;;;;;2.10;1.00;;;;;;;;;;5068753;28;20425;-76
2022/02/12 04:13:02;;;;;;;2.03;1.20;;;;;;;;;;5051532;28;20037;-76
2022/02/12 04:15:31;;;;;;;3.38;1.52;;;;;;;;;;5051902;28;20114;-76
2022/02/12 04:17:57;;;;;;;2.80;1.20;;;;;;;;;;5051977;28;20035;-76
2022/02/12 04:20:24;;;;;;;2.70;1.02;;;;;;;;;;5051431;28;20032;-76
2022/02/12 04:22:51;;;;;;;1.80;1.00;;;;;;;;;;5051366;28;20068;-76
2022/02/12 04:25:18;;;;;;;1.73;0.95;;;;;;;;;;5051974;28;20024;-76
2022/02/12 04:27:44;;;;;;;2.53;1.70;;;;;;;;;;5067706;28;20090;-75
2022/02/12 04:30:11;;;;;;;2.85;1.23;;;;;;;;;;5052724;28;20048;-76
2022/02/12 04:32:38;;;;;;;3.90;1.27;;;;;;;;;;5051588;28;20426;-75
2022/02/12 04:35:04;;;;;;;4.40;1.08;;;;;;;;;;5067704;28;20051;-76
2022/02/12 04:37:31;;;;;;;4.45;1.10;;;;;;;;;;5066762;28;20119;-76
2022/02/12 04:39:57;;;;;;;1.65;0.80;;;;;;;;;;5051586;28;20086;-76
2022/02/12 04:42:25;;;;;;;3.17;2.13;;;;;;;;;;5050604;28;20032;-77
2022/02/12 04:44:52;;;;;;;2.45;1.10;;;;;;;;;;5051736;28;20028;-76
2022/02/12 04:47:19;;;;;;;3.35;1.15;;;;;;;;;;5066836;28;20037;-76
2022/02/12 04:49:46;;;;;;;3.08;1.50;;;;;;;;;;5067632;28;20100;-76
2022/02/12 04:52:15;;;;;;;3.42;1.33;;;;;;;;;;5051779;28;20048;-76
2022/02/12 04:54:44;;;;;;;2.15;1.08;;;;;;;;;;5051355;28;20107;-75
2022/02/12 04:57:12;;;;;;;2.20;1.42;;;;;;;;;;5066452;28;20044;-76
2022/02/12 04:59:38;;;;;;;1.40;1.00;;;;;;;;;;5067126;28;20033;-75
2022/02/12 05:02:04;;;;;;;1.73;1.15;;;;;;;;;;5066035;28;20112;-76
2022/02/12 05:04:30;;;;;;;2.35;1.33;;;;;;;;;;5066351;28;20028;-75
2022/02/12 05:06:56;;;;;;;4.28;1.33;;;;;;;;;;5067426;28;20484;-76
2022/02/12 05:09:22;;;;;;;2.78;1.17;;;;;;;;;;5067513;28;20024;-76
2022/02/12 05:11:50;;;;;;;2.03;1.00;;;;;;;;;;5050836;28;20149;-75
2022/02/12 05:14:19;;;;;;;2.10;1.00;;;;;;;;;;5051753;28;20103;-77
2022/02/12 05:16:45;;;;;;;2.13;1.30;;;;;;;;;;5065508;28;20120;-75
2022/02/12 05:19:11;;;;;;;1.77;1.30;;;;;;;;;;5065981;28;20032;-76
2022/02/12 05:21:40;;;;;;;1.23;0.70;;;;;;;;;;5051543;28;20033;-76
2022/02/12 05:24:06;;;;;;;3.20;1.85;;;;;;;;;;5066625;28;20123;-76
2022/02/12 05:26:34;;;;;;;2.10;1.08;;;;;;;;;;5065812;28;20029;-76
2022/02/12 05:29:00;;;;;;;1.48;0.80;;;;;;;;;;5050800;28;20043;-77
2022/02/12 05:31:28;;;;;;;1.15;0.77;;;;;;;;;;5065590;28;20036;-76
2022/02/12 05:33:57;;;;;;;1.75;1.05;;;;;;;;;;5050073;28;20088;-75
2022/02/12 05:36:23;;;;;;;1.77;1.00;;;;;;;;;;5051093;28;20121;-75
2022/02/12 05:38:49;;;;;;;2.58;0.90;;;;;;;;;;5065842;28;20037;-76
2022/02/12 05:41:18;;;;;;;3.65;0.82;;;;;;;;;;5066090;28;20043;-76
2022/02/12 05:43:46;;;;;;;1.88;1.08;;;;;;;;;;5066614;28;20422;-76
2022/02/12 05:46:12;;;;;;;2.42;1.20;;;;;;;;;;5051401;28;20044;-76
2022/02/12 05:48:38;;;;;;;1.95;1.08;;;;;;;;;;5066347;28;20028;-76
2022/02/12 05:51:04;;;;;;;2.38;0.98;;;;;;;;;;5050878;28;20033;-76
2022/02/12 05:53:30;;;;;;;1.30;0.80;;;;;;;;;;5049776;28;20033;-76
2022/02/12 05:55:56;;;;;;;2.00;0.82;;;;;;;;;;5050264;28;20036;-73
2022/02/12 05:58:25;;;;;;;1.60;0.80;;;;;;;;;;5067831;28;20041;-76
2022/02/12 06:00:53;;;;;;;1.48;0.95;;;;;;;;;;5066631;28;20068;-77
2022/02/12 06:03:19;;;;;;;2.65;0.90;;;;;;;;;;5066072;28;20087;-76
2022/02/12 06:05:45;;;;;;;1.67;0.93;;;;;;;;;;5065065;28;20036;-76
2022/02/12 06:08:12;;;;;;;1.85;1.20;;;;;;;;;;5050182;28;20033;-76
2022/02/12 06:10:38;;;;;;;2.08;1.27;;;;;;;;;;5049694;28;20036;-77
2022/02/12 06:13:04;;;;;;;1.75;0.82;;;;;;;;;;5052352;28;20627;-77
2022/02/12 06:15:35;;;;;;;3.25;1.00;;;;;;;;;;5069568;28;20594;-75
2022/02/12 06:18:02;;;;;;;2.20;0.95;;;;;;;;;;5069647;28;20543;-75
2022/02/12 06:20:30;;;;;;;1.20;0.75;;;;;;;;;;5069306;28;20033;-76
2022/02/12 06:22:56;;;;;;;1.98;0.90;;;;;;;;;;5069844;28;20029;-76
2022/02/12 06:25:22;;;;;;;1.30;1.00;;;;;;;;;;5069905;28;20021;-76
2022/02/12 06:27:50;;;;;;;1.52;1.00;;;;;;;;;;5068884;28;20371;-75
2022/02/12 06:30:16;;;;;;;1.90;0.95;;;;;;;;;;5055396;28;20125;-76
2022/02/12 06:32:43;;;;;;;2.03;0.88;;;;;;;;;;5070763;28;20361;-75
2022/02/12 06:35:09;;;;;;;3.45;1.23;;;;;;;;;;5070744;28;20127;-76
2022/02/12 06:37:35;;;;;;;4.97;1.15;;;;;;;;;;5054029;28;20124;-76
2022/02/12 06:40:01;;;;;;;2.58;1.00;;;;;;;;;;5069097;28;20033;-76
2022/02/12 06:42:27;;;;;;;1.40;0.68;;;;;;;;;;5054187;28;20032;-76
2022/02/12 06:44:53;;;;;;;1.00;0.90;;;;;;;;;;5053462;28;20032;-76
2022/02/12 06:47:19;;;;;;;1.73;0.95;;;;;;;;;;5069331;28;20033;-77
2022/02/12 06:49:45;;;;;;;2.40;1.02;;;;;;;;;;5069372;28;20048;-76
2022/02/12 06:52:11;;;;;;;2.08;1.27;;;;;;;;;;5069869;28;20454;-75
2022/02/12 06:54:37;;;;;;;0.98;0.55;;;;;;;;;;5069678;28;20036;-76
2022/02/12 06:57:03;;;;;;;3.17;0.93;;;;;;;;;;5052946;28;20040;-76
2022/02/12 06:59:29;;;;;;;1.50;0.90;;;;;;;;;;5052650;28;20082;-75
2022/02/12 07:01:55;;;;;;;2.60;0.88;;;;;;;;;;5069490;28;20122;-75
2022/02/12 07:04:21;;;;;;;1.25;0.70;;;;;;;;;;5069787;28;21598;-76
2022/02/12 07:06:47;;;;;;;1.90;0.88;;;;;;;;;;5069308;28;20052;-76
2022/02/12 07:09:13;;;;;;;1.58;0.70;;;;;;;;;;5053859;28;20813;-76
2022/02/12 07:11:42;;;;;;;1.95;1.00;;;;;;;;;;5053371;28;20044;-76
2022/02/12 07:14:08;;;;;;;2.50;0.95;;;;;;;;;;5068949;28;20085;-76
2022/02/12 07:16:34;;;;;;;2.38;0.90;;;;;;;;;;5069515;28;20530;-76
2022/02/12 07:19:02;;;;;;;1.38;0.63;;;;;;;;;;5069602;28;20035;-75
2022/02/12 07:21:28;;;;;;;3.40;0.75;;;;;;;;;;5067810;28;20033;-77
2022/02/12 07:23:54;;;;;;;2.03;0.98;;;;;;;;;;5052370;28;20040;-76
2022/02/12 07:26:22;;;;;;;1.60;0.82;;;;;;;;;;5053771;28;20036;-76
2022/02/12 07:28:48;;;;;;;1.05;0.63;;;;;;;;;;5069015;28;20040;-76
2022/02/12 07:31:16;;;;;;;0.90;0.70;;;;;;;;;;5053463;28;20051;-76
2022/02/12 07:33:42;;;;;;;1.85;1.05;;;;;;;;;;5068867;28;20368;-75
2022/02/12 07:36:11;;;;;;;1.25;0.80;;;;;;;;;;5068645;28;20076;-76
2022/02/12 07:38:37;;;;;;;0.80;0.60;;;;;;;;;;5068712;28;20059;-75
2022/02/12 07:41:06;;;;;;;1.75;0.88;;;;;;;;;;5052152;28;20036;-75
2022/02/12 07:43:32;;;;;;;1.73;0.77;;;;;;;;;;5052645;28;20028;-76
2022/02/12 07:46:00;;;;;;;1.17;0.93;;;;;;;;;;5053198;28;20039;-75
2022/02/12 07:48:26;;;;;;;3.13;1.08;;;;;;;;;;5068533;28;20040;-76
2022/02/12 07:50:54;;;;;;;1.45;0.73;;;;;;;;;;5052753;28;20040;-75
2022/02/12 07:53:22;;;;;;;3.25;0.98;;;;;;;;;;5052090;28;20089;-76
2022/02/12 07:55:48;;;;;;;1.17;0.65;;;;;;;;;;5051560;28;20193;-76
2022/02/12 07:58:14;;;;;;;1.73;0.75;;;;;;;;;;5052326;28;20039;-76
2022/02/12 08:00:41;;;;;;;3.00;0.82;;;;;;;;;;5052900;28;20043;-76
2022/02/12 08:03:07;;;;;;;1.77;0.95;;;;;;;;;;5052228;28;20615;-77
2022/02/12 08:05:32;;;;;;;1.40;0.85;;;;;;;;;;5068039;28;20039;-76
2022/02/12 08:08:02;;;;;;;3.70;1.20;;;;;;;;;;5055583;28;20517;-77
2022/02/12 08:13:12;;;;;;;1.38;0.82;;;;;;;;;;5053702;28;20055;-76
2022/02/12 08:15:41;;;;;;;2.45;0.77;;;;;;;;;;5067417;28;20037;-76
2022/02/12 08:18:07;;;;;;;2.53;1.00;;;;;;;;;;5068160;28;20044;-77
2022/02/12 08:20:35;;;;;;;4.78;1.20;;;;;;;;;;5067540;28;20029;-76
2022/02/12 08:23:01;;;;;;;10.48;1.40;;;;;;;;;;5067395;28;20130;-76
2022/02/12 08:25:27;;;;;;;8.63;1.60;;;;;;;;;;5067953;28;20250;-79
2022/02/12 08:27:53;;;;;;;5.65;1.40;;;;;;;;;;5051802;28;20039;-76
2022/02/12 08:30:19;;;;;;;6.50;1.55;;;;;;;;;;5067670;28;20037;-76
2022/02/12 08:32:45;;;;;;;9.15;2.30;;;;;;;;;;5066155;28;20043;-77
2022/02/12 08:35:12;;;;;;;10.55;1.50;;;;;;;;;;5067833;28;20024;-75
2022/02/12 08:37:42;;;;;;;9.13;2.45;;;;;;;;;;5067318;28;20127;-75
2022/02/12 08:40:09;;;;;;;6.15;1.73;;;;;;;;;;5067035;28;20075;-75
2022/02/12 08:42:36;;;;;;;6.72;2.33;;;;;;;;;;5067484;28;20044;-75
2022/02/12 08:45:03;;;;;;;6.53;1.27;;;;;;;;;;5066584;28;20064;-76
2022/02/12 08:47:31;;;;;;;6.18;2.50;;;;;;;;;;5052164;28;20043;-80
2022/02/12 08:49:57;;;;;;;5.22;2.15;;;;;;;;;;5066747;28;20043;-76
2022/02/12 08:52:24;;;;;;;2.67;1.60;;;;;;;;;;5051423;28;20032;-76
2022/02/12 08:54:50;;;;;;;5.93;2.38;;;;;;;;;;5066828;28;20116;-77
2022/02/12 08:57:16;;;;;;;4.15;1.63;;;;;;;;;;5051760;28;20426;-78
2022/02/12 08:59:42;;;;;;;7.00;2.38;;;;;;;;;;5051105;28;20106;-77
2022/02/12 09:02:12;;;;;;;4.63;2.22;;;;;;;;;;5050374;28;20036;-75
2022/02/12 09:04:39;;;;;;;4.80;1.92;;;;;;;;;;5051250;28;20025;-76
2022/02/12 09:07:05;;;;;;;3.55;1.42;;;;;;;;;;5066934;28;20662;-78
2022/02/12 09:09:31;;;;;;;8.27;2.97;;;;;;;;;;5066878;28;20029;-75
2022/02/12 09:11:57;;;;;;;3.13;1.55;;;;;;;;;;5050963;28;20047;-75
2022/02/12 09:14:24;;;;;;;9.27;1.75;;;;;;;;;;5065860;28;20110;-77
2022/02/12 09:16:50;;;;;;;10.35;1.80;;;;;;;;;;5050391;28;20055;-76
2022/02/12 09:19:16;;;;;;;4.78;1.20;;;;;;;;;;5050601;28;20043;-76
2022/02/12 09:21:42;;;;;;;5.63;2.33;;;;;;;;;;5050332;28;20414;-77
2022/02/12 09:24:08;;;;;;;4.68;1.70;;;;;;;;;;5051025;28;20734;-77
2022/02/12 09:26:34;;;;;;;8.98;1.40;;;;;;;;;;5051076;28;20021;-77
2022/02/12 09:29:03;;;;;;;5.47;1.67;;;;;;;;;;5066944;28;20632;-77
2022/02/12 09:31:29;;;;;;;3.83;1.48;;;;;;;;;;5050676;28;20361;-75
2022/02/12 09:33:55;;;;;;;9.45;1.70;;;;;;;;;;5050339;28;20033;-77
2022/02/12 09:36:24;;;;;;;11.27;1.92;;;;;;;;;;5050167;28;20748;-77
2022/02/12 09:38:50;;;;;;;3.58;1.75;;;;;;;;;;5066543;28;20035;-77
2022/02/12 09:41:22;;;;;;;6.25;1.63;;;;;;;;;;5050688;28;20045;-78
2022/02/12 09:43:49;;;;;;;5.63;1.13;;;;;;;;;;5066522;28;20040;-76
2022/02/12 09:46:30;;;;;;;4.65;2.17;;;;;;;;;;5050564;28;20023;-76
2022/02/12 09:48:57;;;;;;;2.90;1.15;;;;;;;;;;5052552;28;20024;-75
2022/02/12 09:51:24;;;;;;;8.05;1.75;;;;;;;;;;5050321;28;20115;-77
2022/02/12 09:53:52;;;;;;;2.50;1.02;;;;;;;;;;5050068;28;20107;-78
2022/02/12 09:56:18;;;;;;;3.30;1.35;;;;;;;;;;5066559;28;20044;-74
2022/02/12 09:58:44;;;;;;;4.20;1.23;;;;;;;;;;5050547;28;20040;-76
2022/02/12 10:01:10;;;;;;;5.20;1.73;;;;;;;;;;5050489;28;20045;-76
2022/02/12 10:03:41;;;;;;;6.35;2.35;;;;;;;;;;5050668;28;20071;-76
2022/02/12 10:06:07;;;;;;;4.53;1.48;;;;;;;;;;5066375;28;20112;-72
2022/02/12 10:08:37;;;;;;;5.80;2.00;;;;;;;;;;5051099;28;20044;-75
2022/02/12 10:11:20;;;;;;;4.57;1.30;;;;;;;;;;5050078;28;20040;-73
2022/02/12 10:13:47;;;;;;;5.35;1.85;;;;;;;;;;5065531;28;20032;-74
2022/02/12 10:16:12;;;;;;;4.60;2.10;;;;;;;;;;5049167;28;20028;-75
2022/02/12 10:18:41;;;;;;;3.00;1.95;;;;;;;;;;5065785;28;20102;-75
2022/02/12 10:21:12;;;;;;;3.33;1.27;;;;;;;;;;5065602;28;20033;-73
2022/02/12 10:23:41;;;;;;;4.43;1.63;;;;;;;;;;5050837;28;20136;-77
2022/02/12 10:26:08;;;;;;;8.45;1.58;;;;;;;;;;5049949;28;20453;-75
2022/02/12 10:28:46;;;;;;;2.85;1.42;;;;;;;;;;5050081;28;20064;-74
2022/02/12 10:31:13;;;;;;;4.90;1.83;;;;;;;;;;5050434;28;20037;-74
2022/02/12 10:33:43;;;;;;;2.55;1.20;;;;;;;;;;5065605;28;20451;-73
2022/02/12 10:36:13;;;;;;;4.50;0.98;;;;;;;;;;5050459;28;20028;-74
2022/02/12 10:38:45;;;;;;;5.28;1.27;;;;;;;;;;5050175;28;20029;-75
2022/02/12 10:41:17;;;;;;;4.05;1.90;;;;;;;;;;5049864;28;20461;-74
2022/02/12 10:43:46;;;;;;;2.72;1.30;;;;;;;;;;5050138;28;20041;-75
2022/02/12 10:46:13;;;;;;;2.55;1.50;;;;;;;;;;5049913;28;20461;-74
2022/02/12 10:48:42;;;;;;;4.95;1.55;;;;;;;;;;5049825;28;20032;-77
2022/02/12 10:51:11;;;;;;;11.60;2.03;;;;;;;;;;5049465;28;20123;-72
2022/02/12 10:53:38;;;;;;;5.45;1.50;;;;;;;;;;5050117;28;20222;-76
2022/02/12 10:56:07;;;;;;;3.92;1.88;;;;;;;;;;5065798;28;20123;-73
2022/02/12 10:58:34;;;;;;;4.43;1.50;;;;;;;;;;5049630;28;20052;-74
2022/02/12 11:01:07;;;;;;;2.00;0.90;;;;;;;;;;5052178;28;20043;-74
2022/02/12 11:03:36;;;;;;;4.22;1.40;;;;;;;;;;5053182;28;20020;-73
2022/02/12 11:06:02;;;;;;;1.67;1.23;;;;;;;;;;5053916;28;20119;-73
2022/02/12 11:08:29;;;;;;;4.38;1.88;;;;;;;;;;5052728;28;20021;-71
2022/02/12 11:10:55;;;;;;;6.18;2.55;;;;;;;;;;5053531;28;20035;-73
2022/02/12 11:13:21;;;;;;;5.05;1.77;;;;;;;;;;5053417;28;20029;-74
2022/02/12 11:15:52;;;;;;;4.68;2.55;;;;;;;;;;5052352;28;20047;-72
2022/02/12 11:18:19;;;;;;;7.20;2.30;;;;;;;;;;5068570;28;20090;-73
2022/02/12 11:20:46;;;;;;;10.45;4.47;;;;;;;;;;5068850;28;20029;-72
2022/02/12 11:23:21;;;;;;;8.65;3.53;;;;;;;;;;5053167;28;20167;-73
2022/02/12 11:25:50;;;;;;;8.18;4.05;;;;;;;;;;5052479;28;20436;-76
2022/02/12 11:28:26;;;;;;;10.55;4.53;;;;;;;;;;5052201;28;20110;-77
2022/02/12 11:31:12;;;;;;;8.77;4.10;;;;;;;;;;5052326;28;20048;-76
2022/02/12 11:33:38;;;;;;;13.52;4.40;;;;;;;;;;5069102;28;20029;-77
2022/02/12 11:36:18;;;;;;;12.43;3.97;;;;;;;;;;5052687;28;20029;-76
2022/02/12 11:38:44;;;;;;;9.40;5.53;;;;;;;;;;5052959;28;20048;-78
2022/02/12 11:41:20;;;;;;;8.70;4.55;;;;;;;;;;5051299;28;20488;-74
2022/02/12 11:43:46;;;;;;;13.93;6.47;;;;;;;;;;5052211;28;20024;-74
2022/02/12 11:46:12;;;;;;;9.98;5.03;;;;;;;;;;5052220;28;20025;-77
2022/02/12 11:48:38;;;;;;;12.95;4.00;;;;;;;;;;5051876;28;20055;-76
2022/02/12 11:51:12;;;;;;;12.93;5.32;;;;;;;;;;5052445;28;20132;-74
2022/02/12 11:53:44;;;;;;;15.70;5.10;;;;;;;;;;5051034;28;20024;-73
2022/02/12 11:56:13;;;;;;;6.65;4.05;;;;;;;;;;5052700;28;20036;-74
2022/02/12 11:58:43;;;;;;;10.05;4.38;;;;;;;;;;5051188;28;20044;-71
2022/02/12 12:01:27;;;;;;;9.27;6.03;;;;;;;;;;5051174;28;20056;-76
2022/02/12 12:04:11;;;;;;;7.60;3.35;;;;;;;;;;5068182;28;20111;-74
2022/02/12 12:07:01;;;;;;;9.77;4.57;;;;;;;;;;5066962;28;20468;-74
2022/02/12 12:09:29;;;;;;;11.93;4.50;;;;;;;;;;5051284;28;20024;-76
2022/02/12 12:12:15;;;;;;;9.25;3.92;;;;;;;;;;5051024;28;20186;-77
2022/02/12 12:14:41;;;;;;;9.15;4.25;;;;;;;;;;5066924;28;20086;-77
2022/02/12 12:17:12;;;;;;;5.72;3.15;;;;;;;;;;5052835;28;20032;-75
2022/02/12 12:19:42;;;;;;;8.95;2.90;;;;;;;;;;5066496;28;20040;-76
2022/02/12 12:22:15;;;;;;;6.43;3.10;;;;;;;;;;5051742;28;20495;-76
2022/02/12 12:24:41;;;;;;;7.05;3.38;;;;;;;;;;5067880;28;20043;-76
2022/02/12 12:27:07;;;;;;;10.88;4.53;;;;;;;;;;5051306;28;20025;-76
2022/02/12 12:32:30;;;;;;;10.60;4.43;;;;;;;;;;5051380;28;20052;-76
2022/02/12 12:35:03;;;;;;;6.38;3.05;;;;;;;;;;5051071;28;20040;-75
2022/02/12 12:37:30;;;;;;;11.23;3.42;;;;;;;;;;5051485;28;20088;-76
2022/02/12 12:40:00;;;;;;;8.15;3.03;;;;;;;;;;5050531;28;20671;-75
2022/02/12 12:42:26;;;;;;;7.13;3.47;;;;;;;;;;5051384;28;20040;-76
2022/02/12 12:45:06;;;;;;;11.18;3.83;;;;;;;;;;5067288;28;20035;-77
2022/02/12 12:47:32;;;;;;;14.90;3.72;;;;;;;;;;5051303;28;20025;-75
2022/02/12 12:50:00;;;;;;;8.77;3.58;;;;;;;;;;5065686;28;20024;-76
2022/02/12 12:52:27;;;;;;;8.32;3.22;;;;;;;;;;5050830;28;20029;-76
2022/02/12 12:54:58;;;;;;;7.45;2.70;;;;;;;;;;5051811;28;20031;-75
2022/02/12 12:57:28;;;;;;;7.10;3.22;;;;;;;;;;5050713;28;20032;-74
2022/02/12 12:59:56;;;;;;;10.18;3.47;;;;;;;;;;5050469;28;20238;-79
2022/02/12 13:02:22;;;;;;;8.48;3.30;;;;;;;;;;5050795;28;20415;-77
2022/02/12 13:04:50;;;;;;;9.27;3.30;;;;;;;;;;5051130;28;20049;-77
2022/02/12 13:07:20;;;;;;;4.18;2.40;;;;;;;;;;5066895;28;20042;-77
2022/02/12 13:09:46;;;;;;;6.60;2.97;;;;;;;;;;5065530;28;20374;-76
2022/02/12 13:12:28;;;;;;;8.90;2.97;;;;;;;;;;5049717;28;20074;-77
2022/02/12 13:14:55;;;;;;;4.80;2.47;;;;;;;;;;5050462;28;20052;-78
2022/02/12 13:17:22;;;;;;;6.82;2.28;;;;;;;;;;5051046;28;20092;-78
2022/02/12 13:19:49;;;;;;;6.38;2.70;;;;;;;;;;5049977;28;20024;-78
2022/02/12 13:22:16;;;;;;;8.80;3.33;;;;;;;;;;5049953;28;20174;-78
2022/02/12 13:24:42;;;;;;;7.20;2.80;;;;;;;;;;5065543;28;20101;-77
2022/02/12 13:27:11;;;;;;;7.35;3.17;;;;;;;;;;5065832;28;20476;-76
2022/02/12 13:29:38;;;;;;;8.77;3.92;;;;;;;;;;5050852;28;20063;-78
2022/02/12 13:32:07;;;;;;;6.00;2.22;;;;;;;;;;5050041;28;20540;-78
2022/02/12 13:34:38;;;;;;;7.45;2.85;;;;;;;;;;5066143;28;20040;-76
2022/02/12 13:37:07;;;;;;;8.80;3.05;;;;;;;;;;5066425;28;20029;-78
2022/02/12 13:39:34;;;;;;;7.60;3.00;;;;;;;;;;5066409;28;20032;-78
2022/02/12 13:42:01;;;;;;;3.97;2.72;;;;;;;;;;5064857;28;20024;-77
2022/02/12 13:44:30;;;;;;;10.05;2.47;;;;;;;;;;5050472;28;20021;-76
2022/02/12 13:46:57;;;;;;;5.15;2.33;;;;;;;;;;5050537;28;20111;-76
2022/02/12 13:49:26;;;;;;;5.90;2.47;;;;;;;;;;5049198;28;20033;-76
2022/02/12 13:51:56;;;;;;;4.25;2.47;;;;;;;;;;5049999;28;20373;-75
2022/02/12 13:54:23;;;;;;;7.82;2.70;;;;;;;;;;5049858;28;20124;-74
2022/02/12 13:56:52;;;;;;;6.55;2.60;;;;;;;;;;5049322;28;20094;-77
2022/02/12 13:59:21;;;;;;;5.78;2.33;;;;;;;;;;5050553;28;20032;-74
2022/02/12 14:01:51;;;;;;;6.63;2.83;;;;;;;;;;5049694;28;20102;-75
2022/02/12 14:04:18;;;;;;;5.30;2.20;;;;;;;;;;5048985;28;20590;-74
2022/02/12 14:06:44;;;;;;;5.93;2.40;;;;;;;;;;5050425;28;20124;-74
2022/02/12 14:09:14;;;;;;;8.32;2.67;;;;;;;;;;5049978;28;20055;-74
2022/02/12 14:11:41;;;;;;;3.47;2.42;;;;;;;;;;5049331;28;20029;-75
2022/02/12 14:14:07;;;;;;;9.43;2.88;;;;;;;;;;5049922;28;20101;-75
2022/02/12 14:16:33;;;;;;;6.45;2.42;;;;;;;;;;5065337;28;21648;-76
2022/02/12 14:18:59;;;;;;;6.82;2.38;;;;;;;;;;5049277;28;20041;-75
2022/02/12 14:21:26;;;;;;;5.10;2.42;;;;;;;;;;5064652;28;20029;-73
2022/02/12 14:23:52;;;;;;;3.58;2.75;;;;;;;;;;5066122;28;20063;-75
2022/02/12 14:26:18;;;;;;;6.50;2.10;;;;;;;;;;5065031;28;20066;-76
2022/02/12 14:28:44;;;;;;;6.43;2.75;;;;;;;;;;5048963;28;20028;-75
2022/02/12 14:31:12;;;;;;;2.63;2.00;;;;;;;;;;5050385;28;21519;-75
2022/02/12 14:33:38;;;;;;;4.75;1.92;;;;;;;;;;5049782;28;20029;-74
2022/02/12 14:36:05;;;;;;;6.80;2.50;;;;;;;;;;5052695;28;20036;-75
2022/02/12 14:38:31;;;;;;;10.05;2.53;;;;;;;;;;5054180;28;20037;-74
2022/02/12 14:40:57;;;;;;;3.33;2.58;;;;;;;;;;5051737;28;20740;-76
2022/02/12 14:43:23;;;;;;;4.40;2.28;;;;;;;;;;5068180;28;20028;-74
2022/02/12 14:45:50;;;;;;;5.53;2.30;;;;;;;;;;5053742;28;20041;-75
2022/02/12 14:48:16;;;;;;;3.40;1.95;;;;;;;;;;5069622;28;20021;-75
2022/02/12 14:50:42;;;;;;;7.93;1.83;;;;;;;;;;5069638;28;20025;-75
2022/02/12 14:53:08;;;;;;;1.95;1.70;;;;;;;;;;5053093;28;20025;-75
2022/02/12 14:55:34;;;;;;;4.63;2.05;;;;;;;;;;5052902;28;20041;-77